Time;durP1;ratioP1;P1;durP2;ratioP2;P2;SDS_P1;SDS_P2;PMS_P1;PMS_P2;Temp;Humidity;BMP_temperature;BMP_pressure;BME280_temperature;BME280_humidity;BME280_pressure;Samples;Min_cycle;Max_cycle;Signal;HPM_P1;HPM_P2
2021/12/23 00:01:55;;;;;;;22.43;15.10;;;2.10;98.10;;;;;;4886505;28;20449;-81
2021/12/23 00:05:11;;;;;;;18.73;13.97;;;2.00;98.40;;;;;;4882348;28;20454;-80
2021/12/23 00:07:38;;;;;;;19.63;12.50;;;2.00;98.30;;;;;;4856776;29;20476;-80
2021/12/23 00:10:11;;;;;;;21.80;14.17;;;2.00;98.50;;;;;;4873093;28;20471;-80
2021/12/23 00:13:11;;;;;;;19.10;12.87;;;1.90;98.60;;;;;;4919882;28;20452;-81
2021/12/23 00:24:07;;;;;;;19.03;14.67;;;1.80;98.70;;;;;;4878765;28;20461;-80
2021/12/23 00:26:37;;;;;;;20.27;13.97;;;1.80;98.80;;;;;;4915568;28;20468;-82
2021/12/23 00:29:07;;;;;;;19.07;13.80;;;1.80;99.10;;;;;;4870855;28;20483;-82
2021/12/23 00:31:37;;;;;;;21.00;14.70;;;1.90;99.10;;;;;;4889552;28;20472;-79
2021/12/23 00:34:10;;;;;;;21.93;14.13;;;1.80;99.10;;;;;;4898634;28;20484;-79
2021/12/23 00:36:47;;;;;;;19.30;13.03;;;1.70;99.20;;;;;;4914747;28;20483;-83
2021/12/23 00:39:15;;;;;;;19.40;13.50;;;1.90;99.20;;;;;;4927432;28;20484;-81
2021/12/23 00:41:49;;;;;;;18.37;11.63;;;1.90;98.80;;;;;;4930704;28;20463;-81
2021/12/23 00:44:30;;;;;;;22.10;13.70;;;2.00;98.90;;;;;;4903917;28;21119;-83
2021/12/23 00:47:16;;;;;;;20.93;13.90;;;2.00;98.80;;;;;;4879422;28;22588;-80
2021/12/23 00:49:44;;;;;;;20.60;13.73;;;2.10;98.60;;;;;;4880960;28;20991;-81
2021/12/23 00:52:37;;;;;;;23.03;13.20;;;2.00;98.60;;;;;;4896720;28;20489;-81
2021/12/23 00:55:11;;;;;;;21.43;14.57;;;2.00;98.70;;;;;;4858509;28;22190;-83
2021/12/23 00:57:59;;;;;;;16.90;10.40;;;1.90;98.80;;;;;;4891336;28;20496;-83
2021/12/23 01:00:29;;;;;;;19.60;13.67;;;2.10;98.70;;;;;;4911350;28;21111;-81
2021/12/23 01:03:00;;;;;;;18.43;12.97;;;1.90;98.70;;;;;;4921254;28;20604;-81
2021/12/23 01:05:28;;;;;;;18.07;11.87;;;1.80;99.00;;;;;;4884164;28;20456;-82
2021/12/23 01:08:01;;;;;;;23.00;15.13;;;2.00;99.00;;;;;;4897638;28;21208;-82
2021/12/23 01:10:30;;;;;;;20.23;13.90;;;1.90;98.90;;;;;;4885950;28;20465;-81
2021/12/23 01:13:01;;;;;;;18.20;13.80;;;2.00;98.80;;;;;;4897724;28;20453;-81
2021/12/23 01:18:11;;;;;;;22.83;15.13;;;2.10;98.60;;;;;;4899263;28;20519;-83
2021/12/23 01:20:52;;;;;;;19.20;14.50;;;1.90;98.50;;;;;;4928750;28;20525;-83
2021/12/23 01:23:23;;;;;;;18.10;14.53;;;1.80;99.00;;;;;;4932964;28;20456;-82
2021/12/23 01:25:52;;;;;;;18.60;13.03;;;2.00;99.00;;;;;;4932408;28;21658;-83
2021/12/23 01:28:20;;;;;;;20.40;14.10;;;2.00;98.90;;;;;;4891019;28;20469;-83
2021/12/23 01:30:48;;;;;;;20.87;13.77;;;2.10;98.90;;;;;;4868103;28;20549;-83
2021/12/23 01:33:15;;;;;;;11.87;7.63;;;2.00;98.60;;;;;;4899254;28;20465;-83
2021/12/23 01:35:44;;;;;;;20.53;14.00;;;2.00;98.60;;;;;;4877591;28;20963;-81
2021/12/23 01:38:12;;;;;;;19.67;15.43;;;2.00;98.80;;;;;;4887963;28;21817;-83
2021/12/23 01:40:39;;;;;;;20.50;14.20;;;2.00;98.70;;;;;;4909212;28;20467;-84
2021/12/23 01:43:06;;;;;;;25.13;16.10;;;1.90;99.20;;;;;;4926512;28;20464;-81
2021/12/23 01:45:34;;;;;;;23.33;15.50;;;2.00;98.90;;;;;;4922286;28;20838;-82
2021/12/23 01:48:01;;;;;;;21.53;15.13;;;2.00;98.80;;;;;;4862354;28;20489;-83
2021/12/23 01:50:29;;;;;;;21.27;13.83;;;2.00;99.00;;;;;;4854064;28;21570;-81
2021/12/23 01:52:58;;;;;;;21.13;14.10;;;2.00;99.00;;;;;;4880378;28;20478;-83
2021/12/23 01:55:26;;;;;;;18.97;12.60;;;1.90;98.90;;;;;;4924905;28;20977;-83
2021/12/23 01:57:54;;;;;;;22.60;14.10;;;1.80;99.30;;;;;;4923184;28;21013;-84
2021/12/23 02:00:23;;;;;;;18.43;13.93;;;1.80;99.60;;;;;;4912567;28;20951;-83
2021/12/23 02:02:51;;;;;;;21.40;14.47;;;1.90;99.50;;;;;;4907841;28;20456;-85
2021/12/23 02:05:19;;;;;;;23.10;14.80;;;1.90;99.10;;;;;;4914106;28;20553;-84
2021/12/23 02:07:45;;;;;;;19.97;13.33;;;1.70;99.50;;;;;;4925429;28;20476;-84
2021/12/23 02:10:13;;;;;;;20.40;13.33;;;1.90;99.50;;;;;;4863640;28;21892;-84
2021/12/23 02:12:46;;;;;;;19.60;13.50;;;1.90;99.30;;;;;;4850956;28;21665;-82
2021/12/23 02:15:14;;;;;;;19.43;14.03;;;1.80;99.20;;;;;;4879088;28;20946;-83
2021/12/23 02:17:43;;;;;;;21.20;13.47;;;1.70;99.40;;;;;;4846724;28;20485;-84
2021/12/23 02:20:16;;;;;;;21.00;10.70;;;1.50;99.90;;;;;;4855047;28;20472;-84
2021/12/23 02:22:43;;;;;;;22.40;14.43;;;1.50;99.90;;;;;;4882831;28;20840;-84
2021/12/23 02:25:12;;;;;;;21.63;13.37;;;1.40;99.90;;;;;;4912130;28;20456;-83
2021/12/23 02:27:39;;;;;;;18.97;14.17;;;1.40;99.90;;;;;;4913912;28;20839;-81
2021/12/23 02:30:10;;;;;;;21.23;14.40;;;1.50;99.90;;;;;;4888712;28;20476;-81
2021/12/23 02:32:39;;;;;;;18.70;14.07;;;1.80;99.90;;;;;;4853660;28;20470;-82
2021/12/23 02:35:11;;;;;;;20.67;14.53;;;1.90;99.50;;;;;;4850403;28;20541;-82
2021/12/23 02:37:39;;;;;;;21.10;13.57;;;1.90;99.50;;;;;;4886878;28;20574;-83
2021/12/23 02:40:07;;;;;;;18.17;14.33;;;1.80;99.50;;;;;;4851416;28;20524;-81
2021/12/23 02:42:34;;;;;;;21.33;14.40;;;1.70;99.70;;;;;;4858812;28;20449;-81
2021/12/23 02:45:04;;;;;;;22.37;14.87;;;1.80;99.80;;;;;;4900154;28;20468;-83
2021/12/23 02:47:31;;;;;;;18.73;12.53;;;1.90;99.40;;;;;;4926971;28;20476;-84
2021/12/23 02:49:58;;;;;;;22.33;14.80;;;2.00;99.30;;;;;;4908612;28;21195;-83
2021/12/23 02:52:26;;;;;;;22.97;15.00;;;1.90;99.30;;;;;;4918683;28;21392;-82
2021/12/23 02:54:57;;;;;;;21.53;13.83;;;2.10;99.40;;;;;;4881567;28;21560;-81
2021/12/23 02:57:24;;;;;;;22.50;15.67;;;2.00;99.30;;;;;;4874709;28;20690;-81
2021/12/23 02:59:51;;;;;;;24.37;16.17;;;1.90;99.50;;;;;;4878888;28;20711;-81
2021/12/23 03:02:18;;;;;;;16.70;12.17;;;2.10;99.20;;;;;;4900364;28;21965;-84
2021/12/23 03:04:46;;;;;;;20.07;13.97;;;1.90;99.20;;;;;;4855711;28;20473;-82
2021/12/23 03:07:15;;;;;;;21.20;14.37;;;1.80;99.70;;;;;;4869323;28;21620;-84
2021/12/23 03:09:46;;;;;;;20.47;13.17;;;1.90;99.40;;;;;;4918496;28;20468;-83
2021/12/23 03:12:13;;;;;;;21.17;13.93;;;1.80;99.60;;;;;;4915850;28;20824;-82
2021/12/23 03:14:40;;;;;;;19.03;13.27;;;1.90;99.70;;;;;;4899608;28;20963;-83
2021/12/23 03:17:19;;;;;;;19.27;11.87;;;1.70;99.90;;;;;;4851637;28;20853;-84
2021/12/23 03:19:45;;;;;;;23.70;13.43;;;1.80;99.80;;;;;;4856242;28;20497;-81
2021/12/23 03:22:12;;;;;;;22.70;13.83;;;1.80;99.70;;;;;;4885745;28;20478;-80
2021/12/23 03:24:39;;;;;;;22.70;15.70;;;1.90;99.80;;;;;;4861298;28;22285;-82
2021/12/23 03:27:06;;;;;;;16.63;12.70;;;1.70;99.80;;;;;;4857114;28;22844;-84
2021/12/23 03:29:33;;;;;;;19.37;12.13;;;1.70;99.90;;;;;;4900491;28;20487;-81
2021/12/23 03:31:59;;;;;;;22.07;13.43;;;2.00;99.90;;;;;;4913469;28;20484;-81
2021/12/23 03:34:26;;;;;;;23.87;15.20;;;2.10;99.50;;;;;;4919099;28;21708;-83
2021/12/23 03:36:53;;;;;;;18.13;12.57;;;2.10;99.50;;;;;;4892286;28;20458;-81
2021/12/23 03:39:20;;;;;;;19.50;12.97;;;2.10;99.40;;;;;;4862025;28;20500;-83
2021/12/23 03:41:47;;;;;;;24.87;15.87;;;2.10;99.30;;;;;;4853549;28;20576;-83
2021/12/23 03:44:15;;;;;;;25.57;14.90;;;1.80;99.60;;;;;;4866105;28;20469;-83
2021/12/23 03:46:43;;;;;;;18.03;12.90;;;1.80;99.90;;;;;;4926271;28;20456;-82
2021/12/23 03:49:10;;;;;;;20.67;14.03;;;1.90;99.90;;;;;;4881717;28;21005;-82
2021/12/23 03:51:37;;;;;;;22.90;14.40;;;2.10;99.80;;;;;;4880549;28;20538;-81
2021/12/23 03:54:04;;;;;;;22.90;15.30;;;1.90;99.90;;;;;;4909738;28;20460;-84
2021/12/23 03:56:31;;;;;;;21.53;15.13;;;1.90;99.90;;;;;;4910337;28;20468;-83
2021/12/23 03:58:58;;;;;;;21.27;15.07;;;2.00;99.90;;;;;;4912293;28;20488;-82
2021/12/23 04:01:27;;;;;;;20.60;11.07;;;2.00;99.90;;;;;;4877722;28;20962;-82
2021/12/23 04:03:55;;;;;;;23.97;14.57;;;2.00;99.90;;;;;;4853966;28;22253;-81
2021/12/23 04:06:22;;;;;;;21.83;16.03;;;2.10;99.50;;;;;;4877880;28;20465;-83
2021/12/23 04:08:49;;;;;;;24.70;16.50;;;2.10;99.70;;;;;;4859632;28;20491;-84
2021/12/23 04:11:16;;;;;;;24.87;16.40;;;2.20;99.50;;;;;;4856600;28;20826;-81
2021/12/23 04:13:47;;;;;;;22.43;16.40;;;2.10;99.40;;;;;;4909256;28;20471;-83
2021/12/23 04:16:15;;;;;;;20.17;13.97;;;2.10;99.60;;;;;;4943143;28;20516;-86
2021/12/23 04:18:46;;;;;;;20.63;14.20;;;2.10;99.70;;;;;;4934336;28;20950;-83
2021/12/23 04:21:14;;;;;;;17.83;12.47;;;2.00;99.70;;;;;;4897878;28;20456;-84
2021/12/23 04:23:41;;;;;;;22.07;15.60;;;2.10;99.90;;;;;;4890712;28;20452;-83
2021/12/23 04:26:09;;;;;;;22.93;13.93;;;1.90;99.90;;;;;;4888814;28;20461;-81
2021/12/23 04:28:46;;;;;;;18.87;11.70;;;2.00;99.90;;;;;;4899925;28;20553;-85
2021/12/23 04:31:19;;;;;;;17.53;12.07;;;2.00;99.90;;;;;;4907938;28;21696;-85
2021/12/23 04:33:47;;;;;;;21.40;14.67;;;1.80;99.90;;;;;;4884188;28;21867;-85
2021/12/23 04:36:16;;;;;;;23.30;15.50;;;1.90;99.90;;;;;;4908671;28;20465;-85
2021/12/23 04:38:45;;;;;;;19.57;15.60;;;1.90;99.90;;;;;;4851218;28;20493;-84
2021/12/23 04:41:13;;;;;;;22.83;15.37;;;1.90;99.90;;;;;;4873981;28;20453;-84
2021/12/23 04:43:47;;;;;;;21.53;14.50;;;2.10;99.90;;;;;;4914679;28;20456;-82
2021/12/23 04:46:17;;;;;;;22.60;15.80;;;2.00;99.90;;;;;;4881697;28;20471;-83
2021/12/23 04:48:47;;;;;;;15.97;11.27;;;1.90;99.90;;;;;;4754666;28;20645;-81
2021/12/23 04:51:21;;;;;;;20.37;14.10;;;2.00;99.90;;;;;;4873504;28;21255;-84
2021/12/23 04:53:48;;;;;;;19.57;15.77;;;1.80;99.90;;;;;;4887775;28;20491;-82
2021/12/23 04:56:16;;;;;;;24.80;16.97;;;2.00;99.90;;;;;;4857845;28;22350;-83
2021/12/23 04:58:46;;;;;;;22.57;15.37;;;2.10;99.90;;;;;;4904741;28;20580;-82
2021/12/23 05:01:27;;;;;;;22.07;14.87;;;2.20;99.90;;;;;;4925109;28;20553;-84
2021/12/23 05:03:56;;;;;;;22.60;14.07;;;2.10;99.90;;;;;;4923881;28;20472;-82
2021/12/23 05:06:25;;;;;;;26.20;15.27;;;2.10;99.90;;;;;;4915461;28;20456;-82
2021/12/23 05:08:53;;;;;;;22.93;14.37;;;2.10;99.90;;;;;;4925788;28;20479;-82
2021/12/23 05:11:20;;;;;;;21.83;15.27;;;2.00;99.90;;;;;;4903570;28;20465;-82
2021/12/23 05:13:47;;;;;;;27.20;18.43;;;1.80;99.90;;;;;;4897041;28;20456;-85
2021/12/23 05:16:18;;;;;;;24.97;15.97;;;1.90;99.90;;;;;;4932301;28;20472;-82
2021/12/23 05:18:45;;;;;;;20.10;14.00;;;1.90;99.90;;;;;;4939909;28;20492;-85
2021/12/23 05:21:12;;;;;;;16.87;11.97;;;1.90;99.90;;;;;;4939001;28;20429;-84
2021/12/23 05:23:39;;;;;;;17.40;14.00;;;2.10;99.90;;;;;;4927237;28;20456;-82
2021/12/23 05:26:08;;;;;;;21.90;16.70;;;2.00;99.90;;;;;;4923185;28;20546;-81
2021/12/23 05:28:38;;;;;;;25.87;17.00;;;1.90;99.90;;;;;;4926289;28;22214;-81
2021/12/23 05:31:15;;;;;;;22.50;14.70;;;1.80;99.90;;;;;;4903287;28;20468;-82
2021/12/23 05:33:42;;;;;;;23.13;15.93;;;1.90;99.90;;;;;;4872016;28;20513;-83
2021/12/23 05:36:11;;;;;;;23.30;15.37;;;1.90;99.90;;;;;;4889252;28;20455;-82
2021/12/23 05:38:45;;;;;;;26.60;17.87;;;1.90;99.90;;;;;;4912276;28;20453;-83
2021/12/23 05:41:12;;;;;;;29.23;17.50;;;1.80;99.90;;;;;;4961026;23;20514;-81
2021/12/23 05:43:39;;;;;;;23.77;16.03;;;1.60;99.90;;;;;;4900721;28;20520;-81
2021/12/23 05:46:06;;;;;;;20.27;13.13;;;1.50;99.90;;;;;;4931816;28;20451;-83
2021/12/23 05:48:33;;;;;;;22.00;14.50;;;1.60;99.90;;;;;;4930930;28;20468;-82
2021/12/23 05:50:59;;;;;;;21.67;14.40;;;1.60;99.90;;;;;;4932178;28;20453;-83
2021/12/23 05:53:30;;;;;;;22.80;15.63;;;1.80;99.90;;;;;;4920496;28;22184;-82
2021/12/23 05:55:57;;;;;;;18.73;10.83;;;1.90;99.90;;;;;;4885423;28;21505;-82
2021/12/23 05:58:28;;;;;;;28.10;17.70;;;1.90;99.90;;;;;;4887758;28;20476;-85
2021/12/23 06:00:55;;;;;;;23.27;16.53;;;1.90;99.90;;;;;;4917824;28;22097;-83
2021/12/23 06:03:24;;;;;;;32.00;15.93;;;2.00;99.90;;;;;;4883796;28;20555;-83
2021/12/23 06:05:52;;;;;;;22.57;14.60;;;1.90;99.90;;;;;;4873814;28;20461;-82
2021/12/23 06:08:19;;;;;;;23.03;15.50;;;1.90;99.90;;;;;;4907649;28;20489;-80
2021/12/23 06:10:47;;;;;;;23.20;15.40;;;1.90;99.90;;;;;;4931595;28;21720;-85
2021/12/23 06:13:14;;;;;;;23.23;15.20;;;1.90;99.90;;;;;;4938882;28;20479;-83
2021/12/23 06:15:41;;;;;;;25.70;15.57;;;1.80;99.90;;;;;;4918732;28;20527;-82
2021/12/23 06:18:08;;;;;;;22.43;17.13;;;1.80;99.90;;;;;;4888230;28;20472;-81
2021/12/23 06:20:38;;;;;;;27.77;15.43;;;1.80;99.90;;;;;;4872711;28;20934;-82
2021/12/23 06:23:05;;;;;;;25.50;16.40;;;1.90;99.90;;;;;;4899336;28;20485;-82
2021/12/23 06:25:32;;;;;;;23.37;15.23;;;2.00;99.90;;;;;;4900457;28;20457;-81
2021/12/23 06:28:01;;;;;;;26.70;16.80;;;2.10;99.90;;;;;;4894519;28;20524;-83
2021/12/23 06:30:28;;;;;;;23.20;16.90;;;2.20;99.90;;;;;;4911581;28;22118;-84
2021/12/23 06:32:56;;;;;;;23.10;16.00;;;2.10;99.90;;;;;;4927878;28;20471;-82
2021/12/23 06:35:28;;;;;;;22.83;15.80;;;2.10;99.90;;;;;;4942122;28;20457;-84
2021/12/23 06:37:55;;;;;;;25.00;17.03;;;1.90;99.90;;;;;;4932353;28;20499;-82
2021/12/23 06:40:24;;;;;;;22.63;13.60;;;2.10;99.90;;;;;;4897548;28;20491;-82
2021/12/23 06:42:54;;;;;;;24.83;15.50;;;2.20;99.90;;;;;;4876606;28;20465;-81
2021/12/23 06:45:21;;;;;;;22.37;14.90;;;2.20;99.90;;;;;;4881841;28;20468;-82
2021/12/23 06:47:48;;;;;;;27.20;15.80;;;2.00;99.90;;;;;;4900375;28;20489;-83
2021/12/23 06:50:17;;;;;;;22.33;13.87;;;2.00;99.90;;;;;;4895882;28;20476;-80
2021/12/23 06:52:44;;;;;;;25.60;15.80;;;1.80;99.90;;;;;;5056761;22;21713;-83
2021/12/23 06:55:16;;;;;;;24.67;15.87;;;2.00;99.90;;;;;;4921096;28;20535;-84
2021/12/23 06:57:56;;;;;;;20.50;14.57;;;2.20;99.90;;;;;;4949172;28;20467;-82
2021/12/23 07:00:25;;;;;;;21.33;15.07;;;1.90;99.90;;;;;;4937361;28;20495;-84
2021/12/23 07:02:53;;;;;;;24.60;15.83;;;1.90;99.90;;;;;;4908991;28;20457;-81
2021/12/23 07:05:22;;;;;;;22.73;16.10;;;2.10;99.90;;;;;;4864970;28;20548;-83
2021/12/23 07:07:55;;;;;;;21.40;12.40;;;2.00;99.90;;;;;;4847510;28;20604;-81
2021/12/23 07:10:25;;;;;;;25.33;15.87;;;2.00;99.90;;;;;;4898796;28;20460;-82
2021/12/23 07:12:55;;;;;;;22.83;15.60;;;2.00;99.90;;;;;;4901926;28;21846;-85
2021/12/23 07:15:24;;;;;;;24.37;16.27;;;2.10;99.90;;;;;;4885815;28;21728;-87
2021/12/23 07:17:56;;;;;;;22.07;15.33;;;2.20;99.90;;;;;;4899732;28;21073;-82
2021/12/23 07:20:26;;;;;;;22.80;14.00;;;2.40;99.90;;;;;;4907182;28;21278;-84
2021/12/23 07:22:54;;;;;;;27.23;17.97;;;2.30;99.90;;;;;;4929917;28;20476;-84
2021/12/23 07:25:21;;;;;;;25.97;15.30;;;2.20;99.90;;;;;;4920374;28;20459;-84
2021/12/23 07:27:51;;;;;;;23.00;14.83;;;2.20;99.90;;;;;;4867716;28;20491;-82
2021/12/23 07:30:19;;;;;;;23.80;14.60;;;2.30;99.90;;;;;;4875139;28;20471;-82
2021/12/23 07:32:47;;;;;;;17.83;12.00;;;2.30;99.90;;;;;;4881280;28;22071;-83
2021/12/23 07:35:15;;;;;;;23.43;15.60;;;2.20;99.90;;;;;;4886587;28;20464;-83
2021/12/23 07:37:42;;;;;;;25.13;16.47;;;2.10;99.90;;;;;;4867090;28;20488;-85
2021/12/23 07:40:14;;;;;;;16.37;10.50;;;2.20;99.90;;;;;;4894517;28;20507;-83
2021/12/23 07:42:51;;;;;;;21.93;12.93;;;2.10;99.90;;;;;;4913125;28;20468;-83
2021/12/23 07:45:19;;;;;;;19.77;11.93;;;2.10;99.90;;;;;;4925135;28;20452;-82
2021/12/23 07:47:45;;;;;;;27.10;16.50;;;2.10;99.90;;;;;;4891644;28;20480;-82
2021/12/23 07:50:12;;;;;;;21.70;13.90;;;2.20;99.90;;;;;;4847161;28;21017;-83
2021/12/23 07:52:39;;;;;;;25.53;17.17;;;2.20;99.90;;;;;;4892381;28;20483;-81
2021/12/23 07:55:06;;;;;;;24.63;16.50;;;2.10;99.90;;;;;;4912000;28;20802;-81
2021/12/23 07:57:36;;;;;;;22.27;16.97;;;2.20;99.90;;;;;;4870503;28;20488;-81
2021/12/23 08:00:07;;;;;;;23.60;15.83;;;2.10;99.90;;;;;;4881754;28;20581;-83
2021/12/23 08:02:34;;;;;;;26.10;16.60;;;2.10;99.90;;;;;;4916896;28;20985;-83
2021/12/23 08:05:04;;;;;;;22.73;14.37;;;2.00;99.90;;;;;;4922665;28;20468;-83
2021/12/23 08:07:32;;;;;;;23.53;13.53;;;1.90;99.90;;;;;;4917586;28;20841;-84
2021/12/23 08:09:58;;;;;;;23.67;14.43;;;2.10;99.90;;;;;;4895121;28;20466;-84
2021/12/23 08:12:25;;;;;;;21.33;13.83;;;2.10;99.90;;;;;;4863728;28;20469;-83
2021/12/23 08:14:51;;;;;;;17.30;13.07;;;2.40;99.90;;;;;;4864091;28;20466;-83
2021/12/23 08:17:33;;;;;;;18.53;12.43;;;2.50;99.90;;;;;;4918394;28;20574;-83
2021/12/23 08:20:00;;;;;;;31.07;17.20;;;2.50;99.90;;;;;;4938952;28;20579;-84
2021/12/23 08:22:28;;;;;;;20.27;14.50;;;2.50;99.90;;;;;;4932882;28;20456;-81
2021/12/23 08:24:55;;;;;;;19.30;12.47;;;2.40;99.90;;;;;;4915838;28;22106;-82
2021/12/23 08:27:31;;;;;;;23.70;15.57;;;2.40;99.90;;;;;;4920758;28;20555;-82
2021/12/23 08:29:59;;;;;;;24.50;16.00;;;2.30;99.90;;;;;;4915441;28;21735;-82
2021/12/23 08:32:26;;;;;;;20.07;12.77;;;2.20;99.90;;;;;;4898598;28;20996;-80
2021/12/23 08:34:58;;;;;;;25.30;16.17;;;2.40;99.90;;;;;;4864828;28;23034;-82
2021/12/23 08:37:26;;;;;;;21.80;15.50;;;2.50;99.90;;;;;;4869606;28;21151;-82
2021/12/23 08:39:54;;;;;;;25.20;17.03;;;2.50;99.90;;;;;;4900973;28;20488;-82
2021/12/23 08:42:23;;;;;;;23.10;16.27;;;2.40;99.90;;;;;;4873628;28;21739;-82
2021/12/23 08:44:51;;;;;;;24.40;15.90;;;2.60;99.90;;;;;;4891770;28;20445;-84
2021/12/23 08:47:18;;;;;;;24.73;16.67;;;2.70;99.90;;;;;;4917041;28;20520;-81
2021/12/23 08:49:47;;;;;;;22.80;15.10;;;2.70;99.80;;;;;;4937782;28;20438;-82
2021/12/23 08:52:14;;;;;;;23.20;14.47;;;2.70;99.80;;;;;;4929975;28;20915;-83
2021/12/23 08:54:42;;;;;;;22.57;14.67;;;2.40;99.90;;;;;;4907663;28;20491;-81
2021/12/23 08:57:13;;;;;;;23.70;15.33;;;2.50;99.90;;;;;;4875205;28;21765;-82
2021/12/23 08:59:39;;;;;;;25.03;15.77;;;2.60;99.90;;;;;;4861687;28;20921;-82
2021/12/23 09:02:07;;;;;;;26.27;15.83;;;2.60;99.90;;;;;;4866712;28;20453;-83
2021/12/23 09:04:38;;;;;;;24.33;16.50;;;2.70;99.90;;;;;;4880658;28;20843;-82
2021/12/23 09:07:11;;;;;;;25.60;15.07;;;2.50;99.90;;;;;;4856700;28;20459;-83
2021/12/23 09:09:45;;;;;;;22.50;15.27;;;2.70;99.90;;;;;;4883433;28;21194;-82
2021/12/23 09:12:12;;;;;;;23.13;15.63;;;2.50;99.90;;;;;;4907633;28;20453;-83
2021/12/23 09:14:39;;;;;;;19.30;12.63;;;2.40;99.90;;;;;;4907472;28;20491;-83
2021/12/23 09:17:12;;;;;;;25.77;15.53;;;2.60;99.90;;;;;;4923297;28;20457;-82
2021/12/23 09:19:41;;;;;;;17.57;12.70;;;2.80;99.90;;;;;;4874817;28;20602;-83
2021/12/23 09:22:10;;;;;;;26.40;17.40;;;3.00;99.60;;;;;;4856261;28;20484;-84
2021/12/23 09:24:42;;;;;;;24.50;16.47;;;2.80;99.50;;;;;;4878861;28;20535;-82
2021/12/23 09:27:26;;;;;;;23.87;14.93;;;3.00;99.40;;;;;;4851325;28;20460;-82
2021/12/23 09:32:51;;;;;;;20.23;13.83;;;2.90;99.70;;;;;;4906973;28;20553;-82
2021/12/23 09:35:23;;;;;;;20.93;14.03;;;3.00;99.50;;;;;;4927530;28;20464;-83
2021/12/23 09:37:53;;;;;;;24.10;15.90;;;3.10;99.30;;;;;;4910642;28;20486;-83
2021/12/23 09:40:23;;;;;;;23.30;15.63;;;3.00;99.20;;;;;;4918029;28;20484;-85
2021/12/23 09:42:54;;;;;;;19.33;13.33;;;3.00;99.20;;;;;;4869059;28;20456;-82
2021/12/23 09:45:21;;;;;;;20.13;13.67;;;2.90;99.20;;;;;;4870370;28;22880;-83
2021/12/23 09:47:49;;;;;;;29.37;16.03;;;3.00;99.50;;;;;;4879597;28;21885;-84
2021/12/23 09:50:21;;;;;;;22.10;14.50;;;3.40;98.70;;;;;;4884824;28;20446;-83
2021/12/23 09:52:53;;;;;;;22.87;15.97;;;3.50;97.60;;;;;;4872481;28;20464;-82
2021/12/23 09:55:25;;;;;;;16.53;12.93;;;3.60;97.40;;;;;;4883020;28;20587;-84
2021/12/23 09:57:55;;;;;;;22.30;14.53;;;3.70;97.20;;;;;;4914513;28;20499;-83
2021/12/23 10:00:46;;;;;;;23.07;14.87;;;3.60;97.20;;;;;;4923142;28;20498;-84
2021/12/23 10:03:39;;;;;;;20.47;15.00;;;3.80;96.70;;;;;;4899414;28;20752;-84
2021/12/23 10:06:09;;;;;;;21.13;14.90;;;3.60;96.70;;;;;;4857732;28;20467;-82
2021/12/23 10:08:48;;;;;;;23.40;15.43;;;3.60;97.00;;;;;;4859422;28;21325;-85
2021/12/23 10:31:25;;;;;;;18.37;13.50;;;4.10;95.80;;;;;;4866444;28;20468;-82
2021/12/23 10:37:22;;;;;;;21.40;13.67;;;4.20;95.60;;;;;;4862774;28;20487;-83
2021/12/23 10:40:08;;;;;;;17.67;12.53;;;3.80;96.30;;;;;;4861701;28;20462;-84
2021/12/23 10:42:49;;;;;;;24.70;15.27;;;3.80;96.40;;;;;;4916399;28;20469;-82
2021/12/23 10:45:16;;;;;;;24.70;15.10;;;4.20;96.20;;;;;;4915059;28;20449;-83
2021/12/23 10:47:58;;;;;;;23.17;15.50;;;4.10;96.00;;;;;;4915211;28;20487;-83
2021/12/23 10:50:33;;;;;;;24.47;14.80;;;4.10;96.20;;;;;;4901576;28;21233;-83
2021/12/23 10:53:06;;;;;;;24.60;14.60;;;4.30;95.70;;;;;;4878764;28;21028;-83
2021/12/23 10:58:20;;;;;;;25.90;15.53;;;4.50;95.10;;;;;;4896927;28;20493;-83
2021/12/23 11:00:56;;;;;;;20.77;13.13;;;4.40;95.10;;;;;;4868226;28;20492;-82
2021/12/23 11:03:31;;;;;;;24.90;16.20;;;4.40;95.20;;;;;;4864565;28;20451;-84
2021/12/23 11:06:30;;;;;;;20.37;12.77;;;4.30;95.60;;;;;;4894174;28;22322;-83
2021/12/23 11:09:36;;;;;;;19.37;13.53;;;4.50;95.50;;;;;;4900117;28;20483;-82
2021/12/23 11:30:12;;;;;;;21.03;14.53;;;4.80;95.20;;;;;;4876639;28;20807;-84
2021/12/23 11:37:58;;;;;;;21.77;15.60;;;4.80;95.10;;;;;;4867667;28;20544;-82
2021/12/23 11:45:34;;;;;;;21.97;14.70;;;5.00;95.60;;;;;;4889899;28;20456;-83
2021/12/23 11:48:08;;;;;;;23.30;15.17;;;5.10;95.30;;;;;;4898801;28;20484;-83
2021/12/23 11:50:53;;;;;;;23.13;15.97;;;4.80;95.50;;;;;;4899996;28;20443;-82
2021/12/23 11:53:24;;;;;;;24.50;16.10;;;4.80;96.00;;;;;;4928376;28;20467;-85
2021/12/23 11:55:59;;;;;;;21.07;15.10;;;5.10;95.90;;;;;;4930942;28;20461;-83
2021/12/23 11:58:50;;;;;;;26.53;15.40;;;5.20;95.60;;;;;;4929478;28;20481;-82
2021/12/23 12:05:00;;;;;;;23.63;14.80;;;5.00;95.40;;;;;;4851609;28;20627;-82
2021/12/23 12:07:30;;;;;;;21.53;15.70;;;4.80;95.90;;;;;;4900725;28;21726;-83
2021/12/23 12:10:06;;;;;;;25.70;16.20;;;5.10;95.80;;;;;;4860973;28;21754;-83
2021/12/23 12:12:58;;;;;;;21.33;15.90;;;4.80;96.00;;;;;;4900632;28;20455;-82
2021/12/23 12:15:47;;;;;;;20.67;14.60;;;4.90;96.30;;;;;;4934208;28;20471;-83
2021/12/23 12:18:22;;;;;;;22.73;14.57;;;5.10;96.10;;;;;;4940759;28;20618;-83
2021/12/23 12:21:02;;;;;;;22.87;15.10;;;5.30;95.80;;;;;;4929992;28;20530;-83
2021/12/23 12:24:26;;;;;;;24.47;14.83;;;5.30;95.60;;;;;;4890225;28;20464;-81
2021/12/23 12:27:01;;;;;;;23.50;14.63;;;5.10;95.80;;;;;;4889265;28;20471;-82
2021/12/23 12:29:36;;;;;;;20.80;14.43;;;5.00;96.10;;;;;;4898022;28;20953;-81
2021/12/23 12:32:04;;;;;;;26.60;15.47;;;5.10;96.30;;;;;;4888772;28;21120;-80
2021/12/23 12:34:35;;;;;;;21.27;13.70;;;4.90;96.40;;;;;;4877243;28;20452;-83
2021/12/23 12:37:07;;;;;;;24.63;15.57;;;5.10;96.60;;;;;;4925952;28;20514;-83
2021/12/23 12:39:42;;;;;;;23.07;15.20;;;5.10;96.30;;;;;;4919489;28;20542;-81
2021/12/23 12:42:32;;;;;;;19.60;13.90;;;5.00;96.50;;;;;;4940605;28;20488;-82
2021/12/23 12:45:09;;;;;;;22.33;15.23;;;5.00;96.60;;;;;;4909846;28;20456;-83
2021/12/23 12:47:47;;;;;;;22.63;14.83;;;5.00;97.00;;;;;;4880406;28;20564;-82
2021/12/23 12:50:21;;;;;;;25.33;15.53;;;5.30;96.80;;;;;;4867346;28;20453;-82
2021/12/23 12:52:55;;;;;;;24.73;15.27;;;5.20;96.60;;;;;;4903298;28;20486;-83
2021/12/23 12:55:26;;;;;;;19.03;12.70;;;5.30;96.70;;;;;;4855912;28;20499;-84
2021/12/23 12:58:00;;;;;;;15.17;10.40;;;5.60;96.40;;;;;;4877616;28;20546;-81
2021/12/23 13:00:35;;;;;;;19.90;14.80;;;5.80;95.90;;;;;;4919394;28;20458;-81
2021/12/23 13:03:19;;;;;;;22.03;14.97;;;5.60;95.80;;;;;;4936711;28;20439;-82
2021/12/23 13:05:53;;;;;;;20.90;15.70;;;5.70;96.20;;;;;;4927260;28;20473;-82
2021/12/23 13:08:24;;;;;;;23.30;14.97;;;5.60;96.40;;;;;;4909213;28;20482;-84
2021/12/23 13:10:51;;;;;;;25.93;15.97;;;5.70;96.40;;;;;;4875898;28;21129;-83
2021/12/23 13:13:40;;;;;;;20.60;13.53;;;5.50;96.70;;;;;;4886170;28;20469;-81
2021/12/23 13:16:23;;;;;;;22.60;14.20;;;5.40;97.20;;;;;;4907256;28;20516;-82
2021/12/23 13:19:12;;;;;;;23.73;15.77;;;5.40;97.60;;;;;;4869476;28;22547;-83
2021/12/23 13:21:44;;;;;;;19.90;12.67;;;5.70;97.70;;;;;;4862859;28;20487;-84
2021/12/23 13:24:14;;;;;;;17.67;12.47;;;6.20;96.70;;;;;;4921053;28;20449;-78
2021/12/23 13:26:41;;;;;;;26.50;16.00;;;6.20;96.30;;;;;;4924468;28;20457;-80
2021/12/23 13:29:09;;;;;;;24.03;14.53;;;6.10;96.30;;;;;;4919502;28;21061;-81
2021/12/23 13:31:39;;;;;;;18.07;13.20;;;6.20;96.60;;;;;;4892207;28;20525;-80
2021/12/23 13:34:28;;;;;;;21.47;13.80;;;6.20;96.50;;;;;;4845454;28;20480;-83
2021/12/23 13:37:08;;;;;;;22.13;14.03;;;6.10;96.80;;;;;;4851521;28;20490;-81
2021/12/23 13:39:42;;;;;;;19.30;13.53;;;6.10;97.20;;;;;;4900235;28;20496;-81
2021/12/23 13:42:11;;;;;;;25.80;15.30;;;6.10;97.00;;;;;;4854804;28;22092;-80
2021/12/23 13:44:46;;;;;;;23.50;14.83;;;6.00;97.40;;;;;;4858093;28;20461;-81
2021/12/23 13:47:19;;;;;;;20.70;13.57;;;6.30;97.40;;;;;;4915657;28;20489;-83
2021/12/23 13:49:53;;;;;;;20.83;12.67;;;6.30;97.20;;;;;;4922307;28;20467;-80
2021/12/23 13:52:27;;;;;;;24.10;15.00;;;6.30;97.30;;;;;;4927446;28;20466;-80
2021/12/23 13:54:56;;;;;;;24.77;15.43;;;6.20;97.40;;;;;;4918098;28;20473;-82
2021/12/23 13:57:25;;;;;;;23.53;14.53;;;6.00;98.00;;;;;;4876600;28;20471;-80
2021/12/23 13:59:55;;;;;;;26.13;13.47;;;6.20;98.50;;;;;;4862063;28;20472;-80
2021/12/23 14:02:28;;;;;;;26.30;15.60;;;6.20;98.60;;;;;;4887596;28;20496;-80
2021/12/23 14:05:06;;;;;;;25.47;15.77;;;6.30;98.90;;;;;;4866499;28;20469;-84
2021/12/23 14:07:45;;;;;;;23.23;15.73;;;6.40;99.10;;;;;;4899012;28;20525;-78
2021/12/23 14:10:20;;;;;;;23.13;15.50;;;6.30;99.20;;;;;;4917967;28;20444;-83